Guanajuato International Airport
MMLO : now visible

Airfield :











YOU CAN JOIN US ON...

 
LOGIN :

Register | Disclaimer

   EN    FR    IT 

 









Legend :    VFR   Marginal VFR   IFR   Intensive IFR   Very Intensive IFR
Visi :
Ceiling :
>= 8 km
>= 3000ft
5 to 8 km
1000 to 3000 ft
1500m to 5 km
500 to 1000 ft
800 to 1500m
200 to 500 ft
< 800m
< 200 ft
Symbols :   Thunderstorms  Fog  Heavy snow  Heavy precipitations  Wind > 20 kt






- Airport Elevation : 5956 ft
- IATA code : BJX


MMLO - Guanajuato International

CURRENT METAR :
  • 170546Z 00000KT 6SM SCT030 BKN080 BKN220 17/16 A3029 RMK SLP123 52009 918 8/463

EXPIRED METARs :
  • 170447Z 36005KT 6SM BKN030 BKN080 OVC220 17/16 A3029 RMK 8/46/ -DZ E 45 OCNLS DROPS
  • 170344Z 00000KT 6SM -DZ BKN030CB OVC080 17/16 A3027 RMK 8/96/ LTGCC

TAF TAF MMLO
Valid from the 17 at 06:00 until the 18 at 06:00 UTC


170536Z 1706/1806 36005KT 6SM HZ BKN030 BKN080 BKN250
TEMPO 1706/1709 5SM -RA BKN030CB
FM171100 00000KT 6SM HZ SCT030 BKN100
FM171800 12010KT P6SM BKN030 BKN080 BKN250
TEMPO 1802/1806 4SM TSRA BKN020CB
MMFR FIR / North America



MET'MAP, your aeronautical weather chart ! - Copyright ORBIFLY December 2007 - Disclaimer

ORBIFLY MET'MAP TEAM :

Programming & Development : Alexandra Zaïnal
Concept & original design : Baudouin d'Aumeries
Assistance for programming : Marc-Olivier Méhu
Technical & hardware support : Manuel Goepfert

Contact : metmap@orbifly.com




SOURCES & CREDITS :

   NOAA       Earth
Advisory